Time;durP1;ratioP1;P1;durP2;ratioP2;P2;SDS_P1;SDS_P2;PMS_P1;PMS_P2;Temp;Humidity;BMP_temperature;BMP_pressure;BME280_temperature;BME280_humidity;BME280_pressure;Samples;Min_cycle;Max_cycle;Signal;HPM_P1;HPM_P2
2021/08/18 00:02:09;;;;;;;12.57;6.53;;;12.30;99.90;;;;;;5119080;28;20622;-86
2021/08/18 00:04:35;;;;;;;13.57;7.53;;;12.20;99.90;;;;;;5118865;28;20175;-87
2021/08/18 00:07:01;;;;;;;14.03;6.93;;;12.20;99.90;;;;;;5120726;28;20329;-87
2021/08/18 00:09:26;;;;;;;12.93;7.57;;;12.20;99.90;;;;;;5123472;28;20294;-86
2021/08/18 00:11:53;;;;;;;12.43;7.10;;;12.30;99.90;;;;;;5121796;28;20171;-86
2021/08/18 00:14:18;;;;;;;15.27;7.03;;;12.20;99.90;;;;;;5117231;28;20203;-86
2021/08/18 00:16:44;;;;;;;12.07;7.37;;;12.20;99.90;;;;;;5116031;28;20244;-85
2021/08/18 00:19:10;;;;;;;11.30;6.47;;;12.20;99.90;;;;;;5115804;28;20187;-86
2021/08/18 00:21:36;;;;;;;10.37;6.40;;;12.20;99.90;;;;;;5115315;28;20605;-86
2021/08/18 00:24:02;;;;;;;13.73;7.60;;;12.20;99.90;;;;;;5115681;28;20266;-86
2021/08/18 00:26:27;;;;;;;14.60;7.73;;;12.20;99.90;;;;;;5115071;28;20227;-86
2021/08/18 00:28:54;;;;;;;12.60;7.37;;;12.20;99.90;;;;;;5115102;28;20199;-86
2021/08/18 00:31:21;;;;;;;12.03;7.47;;;12.20;99.90;;;;;;5114337;28;20174;-86
2021/08/18 00:33:47;;;;;;;13.33;7.77;;;12.20;99.90;;;;;;5112988;28;20171;-86
2021/08/18 00:36:13;;;;;;;13.97;7.40;;;12.20;99.90;;;;;;5113438;28;20198;-85
2021/08/18 00:38:38;;;;;;;10.77;6.90;;;12.20;99.90;;;;;;5120375;28;20599;-85
2021/08/18 00:41:04;;;;;;;11.90;7.07;;;12.20;99.90;;;;;;5137087;28;20186;-85
2021/08/18 00:43:30;;;;;;;11.43;7.13;;;12.20;99.90;;;;;;5132792;28;20242;-86
2021/08/18 00:45:56;;;;;;;13.93;7.13;;;12.20;99.90;;;;;;5116507;28;20537;-86
2021/08/18 00:48:21;;;;;;;13.77;8.00;;;12.20;99.90;;;;;;5116064;28;20725;-86
2021/08/18 00:50:47;;;;;;;14.10;7.30;;;12.20;99.90;;;;;;5116034;28;20181;-86
2021/08/18 00:53:14;;;;;;;13.33;7.10;;;12.20;99.90;;;;;;5115737;28;20177;-86
2021/08/18 00:55:41;;;;;;;11.23;7.03;;;12.20;99.90;;;;;;5117449;28;20206;-86
2021/08/18 00:58:09;;;;;;;11.53;6.60;;;12.20;99.90;;;;;;5116431;28;20204;-86
2021/08/18 01:00:34;;;;;;;12.67;7.83;;;12.20;99.90;;;;;;5115618;28;20195;-86
2021/08/18 01:03:00;;;;;;;16.73;7.33;;;12.10;99.90;;;;;;5117549;28;20193;-86
2021/08/18 01:05:28;;;;;;;15.03;7.00;;;12.00;99.90;;;;;;5116152;28;20190;-86
2021/08/18 01:07:56;;;;;;;15.33;8.20;;;11.90;99.90;;;;;;5115880;28;20210;-86
2021/08/18 01:10:25;;;;;;;13.60;7.33;;;11.90;99.90;;;;;;5116412;28;20172;-86
2021/08/18 01:12:52;;;;;;;19.00;7.83;;;11.90;99.90;;;;;;5117346;28;20631;-86
2021/08/18 01:15:20;;;;;;;13.17;7.53;;;11.90;99.90;;;;;;5115739;28;20177;-86
2021/08/18 01:17:51;;;;;;;14.83;7.53;;;11.90;99.90;;;;;;5115739;28;20194;-86
2021/08/18 01:20:20;;;;;;;14.27;7.57;;;11.90;99.90;;;;;;5117416;28;20528;-86
2021/08/18 01:22:47;;;;;;;15.17;8.23;;;11.90;99.90;;;;;;5115800;28;20229;-86
2021/08/18 01:25:13;;;;;;;14.00;7.83;;;12.00;99.90;;;;;;5115699;28;20234;-86
2021/08/18 01:27:47;;;;;;;19.83;8.10;;;12.00;99.90;;;;;;5115645;28;20286;-86
2021/08/18 01:30:14;;;;;;;14.70;7.37;;;12.00;99.90;;;;;;5115876;28;20179;-86
2021/08/18 01:32:50;;;;;;;14.87;8.80;;;12.00;99.90;;;;;;5117328;28;20235;-86
2021/08/18 01:35:18;;;;;;;13.73;8.10;;;11.90;99.90;;;;;;5115537;28;20186;-86
2021/08/18 01:37:44;;;;;;;16.23;8.00;;;11.90;99.90;;;;;;5116002;28;20202;-86
2021/08/18 01:40:10;;;;;;;14.53;8.33;;;12.00;99.90;;;;;;5117281;28;20179;-86
2021/08/18 01:42:38;;;;;;;14.93;7.83;;;12.00;99.90;;;;;;5116058;28;20485;-86
2021/08/18 01:45:04;;;;;;;17.53;8.70;;;12.00;99.90;;;;;;5115773;28;20199;-86
2021/08/18 01:47:30;;;;;;;15.93;7.87;;;12.00;99.90;;;;;;5119272;28;20206;-86
2021/08/18 01:49:56;;;;;;;17.03;7.97;;;12.00;99.90;;;;;;5118876;28;20207;-86
2021/08/18 01:52:21;;;;;;;17.57;9.13;;;12.00;99.90;;;;;;5120415;28;20172;-86
2021/08/18 01:54:47;;;;;;;18.03;9.00;;;12.00;99.90;;;;;;5120789;28;20168;-86
2021/08/18 01:57:13;;;;;;;15.90;8.13;;;12.00;99.90;;;;;;5119324;28;20195;-86
2021/08/18 01:59:38;;;;;;;14.70;8.27;;;12.00;99.90;;;;;;5118349;28;20607;-86
2021/08/18 02:02:04;;;;;;;16.30;8.47;;;12.00;99.90;;;;;;5120658;28;20191;-86
2021/08/18 02:04:30;;;;;;;16.50;8.37;;;12.00;99.90;;;;;;5119569;28;20183;-86
2021/08/18 02:06:55;;;;;;;18.30;8.80;;;11.90;99.90;;;;;;5120692;28;20665;-86
2021/08/18 02:09:21;;;;;;;14.53;7.53;;;12.00;99.90;;;;;;5120234;28;20256;-86
2021/08/18 02:11:47;;;;;;;19.43;9.00;;;11.90;99.90;;;;;;5118043;28;20175;-86
2021/08/18 02:14:13;;;;;;;16.87;7.93;;;11.90;99.90;;;;;;5117565;28;20171;-87
2021/08/18 02:16:38;;;;;;;18.30;7.80;;;11.90;99.90;;;;;;5119069;28;20227;-86
2021/08/18 02:19:04;;;;;;;14.67;7.87;;;11.90;99.90;;;;;;5119033;28;20243;-86
2021/08/18 02:21:30;;;;;;;12.77;7.07;;;12.00;99.90;;;;;;5119012;28;20198;-86
2021/08/18 02:23:55;;;;;;;15.17;7.67;;;12.00;99.90;;;;;;5117350;28;20665;-86
2021/08/18 02:26:21;;;;;;;16.90;7.53;;;12.00;99.90;;;;;;5118352;28;20612;-86
2021/08/18 02:28:47;;;;;;;14.47;7.47;;;12.10;99.90;;;;;;5117646;28;20211;-86
2021/08/18 02:31:12;;;;;;;13.20;7.43;;;12.00;99.90;;;;;;5116850;28;20238;-85
2021/08/18 02:33:38;;;;;;;12.70;6.37;;;12.10;99.90;;;;;;5116523;28;20562;-86
2021/08/18 02:36:04;;;;;;;10.53;6.43;;;12.00;99.90;;;;;;5116466;28;20203;-86
2021/08/18 02:38:30;;;;;;;12.67;6.83;;;12.10;99.90;;;;;;5116307;28;20183;-86
2021/08/18 02:40:55;;;;;;;12.10;6.33;;;12.10;99.90;;;;;;5117351;28;20258;-85
2021/08/18 02:43:21;;;;;;;11.13;6.43;;;12.10;99.90;;;;;;5116696;28;20175;-85
2021/08/18 02:45:47;;;;;;;12.13;6.83;;;12.10;99.90;;;;;;5115596;28;20187;-86
2021/08/18 02:48:12;;;;;;;13.10;7.43;;;12.10;99.90;;;;;;5115088;28;20203;-86
2021/08/18 02:50:38;;;;;;;13.20;6.90;;;12.10;99.90;;;;;;5118511;28;20175;-86
2021/08/18 02:53:04;;;;;;;11.83;6.70;;;12.20;99.90;;;;;;5134041;28;20248;-86
2021/08/18 02:55:30;;;;;;;12.37;7.07;;;12.20;99.90;;;;;;5141027;28;20160;-84
2021/08/18 02:57:57;;;;;;;12.43;6.53;;;12.20;99.90;;;;;;5123992;28;20195;-86
2021/08/18 03:00:23;;;;;;;13.93;7.47;;;12.20;99.90;;;;;;5118223;28;20198;-86
2021/08/18 03:02:50;;;;;;;14.80;7.57;;;12.10;99.90;;;;;;5118737;28;20555;-86
2021/08/18 03:05:16;;;;;;;14.03;7.37;;;12.10;99.90;;;;;;5118745;28;20179;-86
2021/08/18 03:07:42;;;;;;;14.40;7.40;;;12.20;99.90;;;;;;5118606;28;20616;-87
2021/08/18 03:10:08;;;;;;;14.20;7.67;;;12.20;99.90;;;;;;5119420;28;20181;-86
2021/08/18 03:12:36;;;;;;;13.80;7.80;;;12.10;99.90;;;;;;5120047;28;20656;-87
2021/08/18 03:15:03;;;;;;;13.87;7.70;;;12.20;99.90;;;;;;5117640;28;20175;-86
2021/08/18 03:17:29;;;;;;;14.33;7.50;;;12.20;99.90;;;;;;5119062;28;20202;-86
2021/08/18 03:19:55;;;;;;;17.70;8.77;;;12.30;99.90;;;;;;5118305;28;20183;-86
2021/08/18 03:22:21;;;;;;;16.23;8.20;;;12.30;99.90;;;;;;5118206;28;20190;-86
2021/08/18 03:24:46;;;;;;;13.97;8.03;;;12.30;99.90;;;;;;5118165;28;20235;-86
2021/08/18 03:27:12;;;;;;;18.57;9.17;;;12.30;99.90;;;;;;5118263;28;20203;-86
2021/08/18 03:29:38;;;;;;;16.20;8.50;;;12.30;99.90;;;;;;5117930;28;20234;-86
2021/08/18 03:32:04;;;;;;;15.83;8.90;;;12.30;99.90;;;;;;5118759;28;20186;-86
2021/08/18 03:34:30;;;;;;;17.63;9.17;;;12.30;99.90;;;;;;5118512;28;20655;-86
2021/08/18 03:36:55;;;;;;;18.17;9.13;;;12.40;99.90;;;;;;5118069;28;20195;-86
2021/08/18 03:39:21;;;;;;;15.97;8.47;;;12.40;99.90;;;;;;5119568;28;20538;-86
2021/08/18 03:41:47;;;;;;;20.40;9.67;;;12.40;99.90;;;;;;5117598;28;20182;-86
2021/08/18 03:44:12;;;;;;;17.47;8.93;;;12.30;99.90;;;;;;5119192;28;20204;-86
2021/08/18 03:46:38;;;;;;;17.97;9.33;;;12.30;99.90;;;;;;5118572;28;20195;-86
2021/08/18 03:49:04;;;;;;;21.23;10.40;;;12.40;99.90;;;;;;5117386;28;20241;-86
2021/08/18 03:51:30;;;;;;;22.13;10.77;;;12.40;99.90;;;;;;5118236;28;20171;-86
2021/08/18 03:53:55;;;;;;;21.67;10.70;;;12.40;99.90;;;;;;5118590;28;20628;-86
2021/08/18 03:56:21;;;;;;;17.27;10.40;;;12.40;99.90;;;;;;5117475;28;20195;-85
2021/08/18 03:58:47;;;;;;;21.97;10.77;;;12.40;99.90;;;;;;5119041;28;20184;-86
2021/08/18 04:01:12;;;;;;;25.23;11.07;;;12.40;99.90;;;;;;5119044;28;20220;-85
2021/08/18 04:03:38;;;;;;;22.13;10.63;;;12.40;99.90;;;;;;5119227;28;20171;-86
2021/08/18 04:06:04;;;;;;;20.27;10.37;;;12.50;99.90;;;;;;5117635;28;20210;-86
2021/08/18 04:08:33;;;;;;;20.80;10.40;;;12.40;99.90;;;;;;5116556;28;20268;-86
2021/08/18 04:10:58;;;;;;;21.53;12.00;;;12.40;99.90;;;;;;5117832;28;20178;-86
2021/08/18 04:13:24;;;;;;;20.37;11.70;;;12.40;99.90;;;;;;5118963;28;20178;-86
2021/08/18 04:15:50;;;;;;;18.47;10.77;;;12.40;99.90;;;;;;5118612;28;20182;-86
2021/08/18 04:18:16;;;;;;;24.10;11.80;;;12.40;99.90;;;;;;5117416;28;20179;-86
2021/08/18 04:20:42;;;;;;;22.37;11.80;;;12.40;99.90;;;;;;5117990;28;20181;-86
2021/08/18 04:23:08;;;;;;;22.17;11.53;;;12.50;99.90;;;;;;5117997;28;20207;-86
2021/08/18 04:25:34;;;;;;;23.30;11.50;;;12.50;99.90;;;;;;5119035;28;20198;-86
2021/08/18 04:28:00;;;;;;;20.13;11.67;;;12.40;99.90;;;;;;5117206;28;20627;-86
2021/08/18 04:30:26;;;;;;;25.30;12.73;;;12.40;99.90;;;;;;5116679;28;20277;-86
2021/08/18 04:32:52;;;;;;;25.53;12.47;;;12.40;99.90;;;;;;5115874;28;20211;-86
2021/08/18 04:35:19;;;;;;;22.27;11.17;;;12.40;99.90;;;;;;5117675;28;20171;-85
2021/08/18 04:37:45;;;;;;;22.53;12.07;;;12.40;99.90;;;;;;5115868;28;20208;-86
2021/08/18 04:40:13;;;;;;;28.67;13.57;;;12.40;99.90;;;;;;5115848;28;20180;-85
2021/08/18 04:42:46;;;;;;;23.50;12.47;;;12.40;99.90;;;;;;5115741;28;20182;-85
2021/08/18 04:45:13;;;;;;;22.40;11.80;;;12.40;99.90;;;;;;5115956;28;20175;-85
2021/08/18 04:47:39;;;;;;;22.60;12.50;;;12.40;99.90;;;;;;5114907;28;20226;-85
2021/08/18 04:50:06;;;;;;;24.20;12.37;;;12.40;99.90;;;;;;5115455;28;20570;-85
2021/08/18 04:52:32;;;;;;;24.73;12.83;;;12.40;99.90;;;;;;5116391;28;20613;-85
2021/08/18 04:54:58;;;;;;;22.63;12.37;;;12.50;99.90;;;;;;5115049;28;20236;-85
2021/08/18 04:57:23;;;;;;;27.67;12.90;;;12.40;99.90;;;;;;5114976;28;20332;-85
2021/08/18 04:59:49;;;;;;;23.40;11.73;;;12.40;99.90;;;;;;5114535;28;20301;-86
2021/08/18 05:02:15;;;;;;;24.73;11.33;;;12.40;99.90;;;;;;5114602;28;20283;-86
2021/08/18 05:04:41;;;;;;;21.77;12.47;;;12.40;99.90;;;;;;5114059;28;20209;-85
2021/08/18 05:07:07;;;;;;;21.47;12.33;;;12.40;99.90;;;;;;5113782;28;20206;-85
2021/08/18 05:09:32;;;;;;;21.30;12.33;;;12.40;99.90;;;;;;5117374;28;20728;-85
2021/08/18 05:11:58;;;;;;;20.77;12.20;;;12.40;99.90;;;;;;5133293;28;20178;-85
2021/08/18 05:14:24;;;;;;;23.20;11.93;;;12.50;99.90;;;;;;5138330;28;20215;-86
2021/08/18 05:16:51;;;;;;;21.77;12.90;;;12.40;99.90;;;;;;5122484;28;20206;-87
2021/08/18 05:19:17;;;;;;;23.60;12.07;;;12.40;99.90;;;;;;5119249;28;20305;-86
2021/08/18 05:21:42;;;;;;;21.97;13.13;;;12.50;99.90;;;;;;5121908;28;20648;-86
2021/08/18 05:24:08;;;;;;;21.07;12.23;;;12.50;99.90;;;;;;5121241;28;20538;-86
2021/08/18 05:26:34;;;;;;;23.80;13.33;;;12.50;99.90;;;;;;5121662;28;20199;-87
2021/08/18 05:29:00;;;;;;;22.93;11.67;;;12.50;99.90;;;;;;5121901;28;20249;-86
2021/08/18 05:31:26;;;;;;;24.97;12.90;;;12.50;99.90;;;;;;5122048;28;20171;-86
2021/08/18 05:33:51;;;;;;;26.33;12.10;;;12.50;99.90;;;;;;5121490;28;20223;-86
2021/08/18 05:36:17;;;;;;;25.40;12.03;;;12.60;99.90;;;;;;5120408;28;20202;-86
2021/08/18 05:38:43;;;;;;;23.17;12.37;;;12.50;99.90;;;;;;5120577;28;20184;-86
2021/08/18 05:41:09;;;;;;;21.77;11.70;;;12.60;99.90;;;;;;5125083;28;20182;-86
2021/08/18 05:43:35;;;;;;;23.20;12.30;;;12.60;99.90;;;;;;5125531;28;20182;-86
2021/08/18 05:46:01;;;;;;;20.80;11.67;;;12.70;99.90;;;;;;5130121;28;20180;-87
2021/08/18 05:48:27;;;;;;;22.97;12.00;;;12.70;99.90;;;;;;5125497;28;20214;-86
2021/08/18 05:50:52;;;;;;;24.43;12.77;;;12.70;99.90;;;;;;5120082;28;20192;-86
2021/08/18 05:53:18;;;;;;;22.63;12.40;;;12.70;99.90;;;;;;5119963;28;20660;-86
2021/08/18 05:55:51;;;;;;;21.43;11.97;;;12.80;99.90;;;;;;5119646;28;20267;-86
2021/08/18 05:58:17;;;;;;;21.87;11.57;;;12.80;99.90;;;;;;5120059;28;20183;-86
2021/08/18 06:00:43;;;;;;;20.87;11.77;;;12.80;99.90;;;;;;5121289;28;20202;-85
2021/08/18 06:03:09;;;;;;;20.53;11.57;;;12.80;99.90;;;;;;5121104;28;20286;-86
2021/08/18 06:05:38;;;;;;;21.33;11.37;;;12.80;99.90;;;;;;5121362;28;20184;-86
2021/08/18 06:08:05;;;;;;;21.50;12.30;;;12.80;99.90;;;;;;5119474;28;20199;-86
2021/08/18 06:10:31;;;;;;;26.70;12.60;;;12.90;99.90;;;;;;5119572;28;20186;-86
2021/08/18 06:12:57;;;;;;;21.13;12.17;;;12.90;99.90;;;;;;5120774;28;20193;-86
2021/08/18 06:15:22;;;;;;;20.73;11.53;;;12.90;99.90;;;;;;5119802;28;20178;-86
2021/08/18 06:17:48;;;;;;;22.33;11.87;;;12.90;99.90;;;;;;5118888;28;20286;-86
2021/08/18 06:20:17;;;;;;;18.67;11.90;;;12.90;99.90;;;;;;5118473;28;20190;-86
2021/08/18 06:22:43;;;;;;;21.27;11.93;;;13.00;99.90;;;;;;5118763;28;20175;-86
2021/08/18 06:25:09;;;;;;;21.53;11.97;;;13.10;99.90;;;;;;5119221;28;20179;-86
2021/08/18 06:27:35;;;;;;;19.63;11.53;;;13.10;99.90;;;;;;5118222;28;20272;-86
2021/08/18 06:30:01;;;;;;;18.83;11.70;;;13.10;99.90;;;;;;5118404;28;20207;-87
2021/08/18 06:32:26;;;;;;;22.77;11.10;;;13.10;99.90;;;;;;5118025;28;20178;-86
2021/08/18 06:34:53;;;;;;;21.47;11.50;;;13.20;99.90;;;;;;5118602;28;20633;-86
2021/08/18 06:37:22;;;;;;;17.67;10.63;;;13.20;99.90;;;;;;5118432;28;20245;-86
2021/08/18 06:39:49;;;;;;;19.50;11.43;;;13.30;99.90;;;;;;5118416;28;20224;-86
2021/08/18 06:42:15;;;;;;;19.57;11.47;;;13.30;99.90;;;;;;5118246;28;20176;-87
2021/08/18 06:44:42;;;;;;;18.00;10.40;;;13.30;99.90;;;;;;5117998;28;20636;-86
2021/08/18 06:47:08;;;;;;;18.73;10.43;;;13.30;99.90;;;;;;5118499;28;20319;-86
2021/08/18 06:49:33;;;;;;;17.97;11.13;;;13.40;99.90;;;;;;5118124;28;20199;-86
2021/08/18 06:52:00;;;;;;;20.07;10.03;;;13.50;99.90;;;;;;5117884;28;20183;-87
2021/08/18 06:54:26;;;;;;;18.07;10.03;;;13.60;99.90;;;;;;5118043;28;20646;-86
2021/08/18 06:56:52;;;;;;;19.83;10.63;;;13.60;99.90;;;;;;5119055;28;20187;-86
2021/08/18 06:59:18;;;;;;;19.17;10.97;;;13.70;99.90;;;;;;5117161;28;20199;-86
2021/08/18 07:01:44;;;;;;;16.37;10.37;;;13.70;99.90;;;;;;5117949;28;20195;-85
2021/08/18 07:04:12;;;;;;;17.33;10.27;;;13.80;99.90;;;;;;5117224;28;20188;-86
2021/08/18 07:06:38;;;;;;;18.07;10.80;;;13.80;99.90;;;;;;5117261;28;20196;-86
2021/08/18 07:09:04;;;;;;;17.03;9.97;;;13.90;99.90;;;;;;5116702;28;20203;-86
2021/08/18 07:11:30;;;;;;;17.97;10.30;;;13.90;99.90;;;;;;5116554;28;20175;-85
2021/08/18 07:14:00;;;;;;;16.77;10.67;;;13.90;99.90;;;;;;5117291;28;20178;-86
2021/08/18 07:16:31;;;;;;;16.67;10.00;;;14.00;99.90;;;;;;5116383;28;20202;-85
2021/08/18 07:18:57;;;;;;;16.17;10.07;;;14.00;99.90;;;;;;5116358;28;20179;-85
2021/08/18 07:21:23;;;;;;;18.70;10.93;;;14.00;99.90;;;;;;5115964;28;20171;-85
2021/08/18 07:23:52;;;;;;;19.07;10.60;;;14.10;99.90;;;;;;5115182;28;20283;-85
2021/08/18 07:26:18;;;;;;;21.10;10.20;;;14.10;99.90;;;;;;5115074;28;20191;-85
2021/08/18 07:28:44;;;;;;;18.90;9.67;;;14.10;99.90;;;;;;5118529;28;20293;-85
2021/08/18 07:31:10;;;;;;;18.17;9.53;;;14.20;99.90;;;;;;5134690;28;20175;-85
2021/08/18 07:33:36;;;;;;;18.83;11.10;;;14.30;99.90;;;;;;5140048;28;20168;-85
2021/08/18 07:36:03;;;;;;;15.37;9.53;;;14.30;99.90;;;;;;5127546;28;20540;-86
2021/08/18 07:38:29;;;;;;;17.73;9.97;;;14.30;99.90;;;;;;5117399;28;20190;-86
2021/08/18 07:40:54;;;;;;;16.53;9.97;;;14.30;99.90;;;;;;5117089;28;20184;-86
2021/08/18 07:43:20;;;;;;;15.57;9.57;;;14.40;99.90;;;;;;5116804;28;20182;-86
2021/08/18 07:45:46;;;;;;;20.60;10.37;;;14.60;99.90;;;;;;5117986;28;20186;-86
2021/08/18 07:48:12;;;;;;;17.77;10.03;;;14.50;99.90;;;;;;5117336;28;20203;-86
2021/08/18 07:50:39;;;;;;;17.27;9.37;;;14.70;99.90;;;;;;5116958;28;20176;-86
2021/08/18 07:53:05;;;;;;;17.97;9.70;;;14.80;99.90;;;;;;5117079;28;20514;-86
2021/08/18 07:55:31;;;;;;;16.63;10.30;;;14.90;99.90;;;;;;5117071;28;20171;-86
2021/08/18 07:57:57;;;;;;;21.77;10.07;;;15.00;99.90;;;;;;5116863;28;20191;-87
2021/08/18 08:00:23;;;;;;;16.70;9.70;;;15.00;99.90;;;;;;5116699;28;20732;-87
2021/08/18 08:02:49;;;;;;;16.97;9.23;;;15.10;99.90;;;;;;5117352;28;20175;-87
2021/08/18 08:05:16;;;;;;;17.10;9.50;;;15.10;99.90;;;;;;5117576;28;20182;-87
2021/08/18 08:07:43;;;;;;;16.13;9.53;;;15.10;99.90;;;;;;5116628;28;20196;-86
2021/08/18 08:10:11;;;;;;;18.00;9.67;;;15.20;99.90;;;;;;5117519;28;20212;-87
2021/08/18 08:12:37;;;;;;;15.73;9.33;;;15.10;99.90;;;;;;5117530;28;20172;-86
2021/08/18 08:15:05;;;;;;;17.93;10.07;;;15.20;99.90;;;;;;5116585;28;20179;-86
2021/08/18 08:17:31;;;;;;;18.93;9.83;;;15.20;99.90;;;;;;5117172;28;20599;-87
2021/08/18 08:19:57;;;;;;;16.30;9.80;;;15.30;99.90;;;;;;5116945;28;20187;-87
2021/08/18 08:22:23;;;;;;;14.30;10.27;;;15.40;99.90;;;;;;5116828;28;20266;-87
2021/08/18 08:24:49;;;;;;;14.37;9.63;;;15.40;99.90;;;;;;5116983;28;20530;-87
2021/08/18 08:27:15;;;;;;;15.93;9.33;;;15.40;99.90;;;;;;5116337;28;20199;-86
2021/08/18 08:29:41;;;;;;;17.43;9.20;;;15.40;99.90;;;;;;5118094;28;20337;-87
2021/08/18 08:32:07;;;;;;;16.77;9.47;;;15.40;99.90;;;;;;5116655;28;20187;-87
2021/08/18 08:34:34;;;;;;;19.07;8.93;;;15.40;99.90;;;;;;5116336;28;20553;-87
2021/08/18 08:37:00;;;;;;;15.50;10.27;;;15.40;99.90;;;;;;5115955;28;20283;-86
2021/08/18 08:39:26;;;;;;;18.57;9.97;;;15.40;99.90;;;;;;5117171;28;20214;-87
2021/08/18 08:41:52;;;;;;;13.00;9.20;;;15.40;99.90;;;;;;5116505;28;20179;-86
2021/08/18 08:44:21;;;;;;;16.43;9.10;;;15.40;99.90;;;;;;5116602;28;20175;-86
2021/08/18 08:46:52;;;;;;;14.67;9.50;;;15.40;99.90;;;;;;5116414;28;20191;-86
2021/08/18 08:49:20;;;;;;;13.53;8.73;;;15.50;99.90;;;;;;5115875;28;20244;-86
2021/08/18 08:51:47;;;;;;;13.70;9.40;;;15.50;99.90;;;;;;5116769;28;20167;-86
2021/08/18 08:54:14;;;;;;;15.03;9.13;;;15.50;99.90;;;;;;5116413;28;20175;-86
2021/08/18 08:56:40;;;;;;;15.33;9.00;;;15.50;99.90;;;;;;5119788;28;20195;-87
2021/08/18 08:59:06;;;;;;;14.80;8.47;;;15.50;99.90;;;;;;5120444;28;20179;-86
2021/08/18 09:02:01;;;;;;;12.03;8.17;;;15.50;99.90;;;;;;5120177;28;20195;-87
2021/08/18 09:04:32;;;;;;;11.77;7.80;;;15.50;99.90;;;;;;5119609;28;20202;-86
2021/08/18 09:07:05;;;;;;;12.10;8.13;;;15.50;99.90;;;;;;5119896;28;20195;-86
2021/08/18 09:09:32;;;;;;;16.57;8.60;;;15.50;99.90;;;;;;5119755;28;20558;-86
2021/08/18 09:12:04;;;;;;;12.50;7.43;;;15.60;99.90;;;;;;5119693;28;20248;-86
2021/08/18 09:14:30;;;;;;;13.13;7.83;;;15.70;99.90;;;;;;5119421;28;20171;-86
2021/08/18 09:16:56;;;;;;;11.93;7.47;;;15.70;99.90;;;;;;5118925;28;20287;-87
2021/08/18 09:19:32;;;;;;;10.67;7.20;;;16.00;99.90;;;;;;5120125;28;20183;-87
2021/08/18 09:22:21;;;;;;;11.40;7.50;;;16.00;99.90;;;;;;5118715;28;20194;-86
2021/08/18 09:24:47;;;;;;;12.27;7.83;;;16.10;99.90;;;;;;5119253;28;20532;-87
2021/08/18 09:27:24;;;;;;;11.63;7.40;;;16.30;99.90;;;;;;5118929;28;20195;-86
2021/08/18 09:29:50;;;;;;;11.43;7.43;;;16.20;99.90;;;;;;5119919;28;20229;-86
2021/08/18 09:32:23;;;;;;;9.87;6.63;;;16.20;99.90;;;;;;5118336;28;20172;-86
2021/08/18 09:34:58;;;;;;;12.63;6.40;;;16.20;99.90;;;;;;5118636;28;20173;-87
2021/08/18 09:37:25;;;;;;;11.10;6.93;;;16.20;99.90;;;;;;5073577;22;20780;-86
2021/08/18 09:39:51;;;;;;;13.03;7.60;;;16.40;99.90;;;;;;5038786;28;20632;-86
2021/08/18 09:42:34;;;;;;;13.07;7.63;;;16.60;99.90;;;;;;5037660;28;20189;-87
2021/08/18 09:45:21;;;;;;;11.90;7.17;;;16.90;99.90;;;;;;5039405;28;20204;-86
2021/08/18 09:47:55;;;;;;;9.13;6.17;;;17.10;99.90;;;;;;5038858;28;20198;-86
2021/08/18 09:50:22;;;;;;;9.27;6.03;;;17.50;99.90;;;;;;5046697;28;20179;-87
2021/08/18 09:52:49;;;;;;;13.27;6.80;;;17.50;99.90;;;;;;5039576;28;20213;-87
2021/08/18 09:55:19;;;;;;;9.80;6.53;;;17.40;99.90;;;;;;5038266;28;20537;-87
2021/08/18 09:57:45;;;;;;;11.77;7.23;;;17.20;99.90;;;;;;5039595;28;20194;-87
2021/08/18 10:00:11;;;;;;;11.53;7.50;;;17.10;99.90;;;;;;5039218;28;20516;-87
2021/08/18 10:02:37;;;;;;;10.87;6.93;;;17.10;99.90;;;;;;5037094;28;20228;-87
2021/08/18 10:05:04;;;;;;;11.33;6.73;;;17.00;99.90;;;;;;5037675;28;20182;-87
2021/08/18 10:07:30;;;;;;;9.13;6.90;;;16.90;99.90;;;;;;5037893;28;20194;-87
2021/08/18 10:09:55;;;;;;;13.57;6.93;;;17.00;99.90;;;;;;5038718;28;20197;-87
2021/08/18 10:12:21;;;;;;;10.97;7.50;;;16.90;99.90;;;;;;5038743;28;20178;-87
2021/08/18 10:14:48;;;;;;;11.30;7.50;;;17.10;99.90;;;;;;5038050;28;20178;-87
2021/08/18 10:17:14;;;;;;;12.73;7.37;;;17.00;99.90;;;;;;5037043;28;20247;-87
2021/08/18 10:19:41;;;;;;;11.00;7.47;;;16.90;99.90;;;;;;5038430;28;20536;-87
2021/08/18 10:22:07;;;;;;;10.07;7.33;;;16.80;99.90;;;;;;5038411;28;20668;-86
2021/08/18 10:24:38;;;;;;;11.37;7.77;;;16.70;99.90;;;;;;5038341;28;20186;-87
2021/08/18 10:27:05;;;;;;;10.50;7.23;;;16.60;99.90;;;;;;5037579;28;20230;-86
2021/08/18 10:29:36;;;;;;;12.87;7.37;;;16.50;99.90;;;;;;5038046;28;20706;-87
2021/08/18 10:32:03;;;;;;;10.63;7.30;;;16.50;99.90;;;;;;5039192;28;20579;-87
2021/08/18 10:34:45;;;;;;;10.47;7.70;;;16.40;99.90;;;;;;5038862;28;20249;-87
2021/08/18 10:37:23;;;;;;;10.20;6.80;;;16.50;99.90;;;;;;5038467;28;20217;-87
2021/08/18 10:39:57;;;;;;;11.53;7.20;;;16.50;99.90;;;;;;5040229;28;20165;-87
2021/08/18 10:42:40;;;;;;;11.87;6.60;;;16.60;99.90;;;;;;5039303;28;20285;-87
2021/08/18 10:45:20;;;;;;;10.90;6.63;;;16.70;99.90;;;;;;5039928;28;20194;-87
2021/08/18 10:47:45;;;;;;;10.23;6.07;;;16.80;99.90;;;;;;5039862;28;20208;-87
2021/08/18 10:50:16;;;;;;;11.17;7.33;;;16.90;99.90;;;;;;5040320;28;20230;-87
2021/08/18 10:52:42;;;;;;;11.00;6.80;;;16.90;99.90;;;;;;5040158;28;20680;-87
2021/08/18 10:55:12;;;;;;;10.10;6.97;;;16.80;99.90;;;;;;5039456;28;20210;-87
2021/08/18 10:58:02;;;;;;;11.50;6.90;;;16.80;99.90;;;;;;5039751;28;20205;-87
2021/08/18 11:00:41;;;;;;;10.33;7.47;;;16.90;99.90;;;;;;5038742;28;20186;-87
2021/08/18 11:03:08;;;;;;;10.07;5.87;;;17.20;99.90;;;;;;5038620;28;20214;-87
2021/08/18 11:05:39;;;;;;;8.87;6.23;;;17.40;99.90;;;;;;5038948;28;20586;-87
2021/08/18 11:08:25;;;;;;;10.00;5.33;;;18.30;99.90;;;;;;5040121;28;20222;-87
2021/08/18 11:10:51;;;;;;;8.87;5.50;;;19.10;99.90;;;;;;5040656;28;20209;-87
2021/08/18 11:13:18;;;;;;;6.67;4.63;;;19.60;99.90;;;;;;5043408;28;20196;-87
2021/08/18 11:15:46;;;;;;;7.77;5.40;;;20.20;99.90;;;;;;5040592;28;20179;-88
2021/08/18 11:18:16;;;;;;;9.17;5.83;;;20.80;99.90;;;;;;5039324;28;20309;-87
2021/08/18 11:20:46;;;;;;;8.27;5.60;;;20.70;99.90;;;;;;5040491;28;20215;-88
2021/08/18 11:23:13;;;;;;;7.70;5.50;;;20.60;99.90;;;;;;5047771;28;20188;-87
2021/08/18 11:25:46;;;;;;;7.37;5.30;;;20.20;99.90;;;;;;5043147;28;20187;-87
2021/08/18 11:28:22;;;;;;;6.43;4.77;;;19.70;99.90;;;;;;5038077;28;20602;-87
2021/08/18 11:31:01;;;;;;;5.97;4.10;;;19.70;99.90;;;;;;5037908;28;20213;-87
2021/08/18 11:33:28;;;;;;;5.40;4.20;;;20.30;99.90;;;;;;5036388;28;20258;-88
2021/08/18 11:35:55;;;;;;;9.37;4.87;;;20.90;99.90;;;;;;5036940;28;20231;-87
2021/08/18 11:38:22;;;;;;;7.33;4.27;;;21.10;99.90;;;;;;5036269;28;20232;-87
2021/08/18 11:40:50;;;;;;;7.30;4.43;;;21.30;99.90;;;;;;5036426;28;20723;-87
2021/08/18 11:43:16;;;;;;;5.00;4.03;;;21.40;99.90;;;;;;5036343;28;20541;-87
2021/08/18 11:45:50;;;;;;;5.40;4.00;;;21.10;99.90;;;;;;5036087;28;20193;-87
2021/08/18 11:48:19;;;;;;;6.63;4.20;;;21.50;99.90;;;;;;5036779;28;20238;-87
2021/08/18 11:50:52;;;;;;;7.07;5.10;;;21.90;99.90;;;;;;5036137;28;20636;-87
2021/08/18 11:53:19;;;;;;;5.50;4.60;;;21.80;99.90;;;;;;5037182;28;20174;-87
2021/08/18 11:55:45;;;;;;;8.07;5.50;;;21.70;99.90;;;;;;5036398;28;20185;-86
2021/08/18 11:58:11;;;;;;;9.20;5.07;;;21.80;99.90;;;;;;5038473;28;20198;-87
2021/08/18 12:00:39;;;;;;;6.03;4.50;;;22.10;99.90;;;;;;5038663;28;20174;-87
2021/08/18 12:03:05;;;;;;;8.00;5.43;;;21.90;99.90;;;;;;5042545;28;20181;-88
2021/08/18 12:05:34;;;;;;;7.20;4.90;;;21.60;99.90;;;;;;5040938;28;20252;-88
2021/08/18 12:08:07;;;;;;;6.23;4.80;;;22.00;99.90;;;;;;5036485;28;20204;-88
2021/08/18 12:10:43;;;;;;;6.77;4.77;;;22.60;99.90;;;;;;5036552;28;20191;-88
2021/08/18 12:13:16;;;;;;;7.90;4.67;;;22.80;99.90;;;;;;5035788;28;20176;-88
2021/08/18 12:15:46;;;;;;;5.60;4.50;;;23.10;99.90;;;;;;5036791;28;20189;-88
2021/08/18 12:18:32;;;;;;;5.37;4.30;;;23.00;99.90;;;;;;5037186;28;20516;-88
2021/08/18 12:21:27;;;;;;;4.50;3.43;;;22.50;99.90;;;;;;5037213;28;20179;-88
2021/08/18 12:23:57;;;;;;;4.90;3.90;;;21.70;99.90;;;;;;5036464;28;20262;-88
2021/08/18 12:26:30;;;;;;;4.53;3.40;;;21.70;99.90;;;;;;5036463;28;20625;-88
2021/08/18 12:28:58;;;;;;;3.73;3.23;;;21.50;99.90;;;;;;5037287;28;20238;-88
2021/08/18 12:31:25;;;;;;;5.77;3.70;;;21.20;99.90;;;;;;5036527;28;20175;-88
2021/08/18 12:34:11;;;;;;;5.80;4.00;;;20.70;99.90;;;;;;5036773;28;20174;-88
2021/08/18 12:36:36;;;;;;;6.97;3.93;;;20.20;99.90;;;;;;5037262;28;20546;-87
2021/08/18 12:39:04;;;;;;;6.90;4.17;;;19.80;99.90;;;;;;5039338;28;20185;-87